Latest Weather Observations for Beaudesert AWS

IDQ60801

Issued at 10:05 am EST Tuesday 23 September 2014 (issued every 30 minutes, with the page automatically refreshed every 10 minutes)

About weather observations | Map of weather stations | Latest weather observations for QLD | Other Formats
Station Details ID: 040983 Name: BEAUDESERT DRUMLEY STREET Lat: -27.97 Lon: 152.99 Height: 47.81 m
Data from the previous 72 hours. | See also: Recent months at Beaudesert AWS
Date/Time
EST
Temp
°C
App
Temp
°C
Dew
Point
Rel
Hum
%
Delta-T
°C
Wind Press
QNH
hPa
Press
MSL
hPa
Rain
since 9 am
mm
Dir
 
Spd
km/h
Gust
km/h
Spd
kts
Gust
kts
23/10:00am 20.6 17.7 9.8 50 5.8 SSE 15 22 8 12 1028.8 1028.7 0.0
23/09:30am 21.0 18.6 10.2 50 5.8 ESE 13 19 7 10 1028.9 1028.8 0.0
23/09:00am 21.1 17.4 10.0 49 6.0 ESE 20 26 11 14 1029.0 1028.9 0.0
23/08:30am 18.7 18.5 10.5 59 4.4 W 2 4 1 2 1028.8 1028.7 0.0
23/08:00am 16.4 16.9 11.6 73 2.6 CALM 0 0 0 0 1028.8 1028.7 0.0
23/07:30am 13.8 13.9 10.0 78 2.0 CALM 0 4 0 2 1028.8 1028.7 0.0
23/07:00am 12.8 11.9 9.4 80 1.7 ENE 4 6 2 3 1028.3 1028.2 0.0
23/06:30am 12.8 12.4 9.6 81 1.6 SSE 2 6 1 3 1027.9 1027.8 0.0
23/06:00am 11.2 10.1 8.6 84 1.3 SSE 4 6 2 3 1027.7 1027.6 0.0
23/05:30am 11.4 10.8 8.8 84 1.3 SSE 2 6 1 3 1027.6 1027.5 0.0
23/05:00am 11.9 11.3 8.9 82 1.5 SE 2 4 1 2 1027.4 1027.3 0.0
23/04:30am 12.0 11.5 9.4 84 1.3 SSE 2 4 1 2 1027.2 1027.1 0.0
23/04:00am 11.5 10.9 9.1 85 1.2 E 2 4 1 2 1027.0 1026.9 0.0
23/03:30am 11.3 9.9 8.9 85 1.2 S 6 7 3 4 1026.8 1026.7 0.0
23/03:00am 11.0 9.9 8.6 85 1.2 S 4 6 2 3 1026.8 1026.7 0.0
23/02:30am 11.7 11.1 9.1 84 1.3 SE 2 4 1 2 1026.9 1026.8 0.0
23/02:00am 12.0 11.9 9.6 85 1.2 CALM 0 0 0 0 1026.9 1026.8 0.0
23/01:30am 12.2 12.0 9.0 81 1.6 CALM 0 4 0 2 1027.4 1027.3 0.0
23/01:00am 12.5 11.6 9.1 80 1.7 SE 4 6 2 3 1027.6 1027.5 0.0
23/12:30am 12.8 12.2 9.1 78 1.9 SE 2 4 1 2 1027.9 1027.8 0.0
23/12:00am 12.4 11.1 9.2 81 1.6 SSE 6 7 3 4 1027.9 1027.8 0.0
 
Date/Time
EST
Temp
°C
App
Temp
°C
Dew
Point
Rel
Hum
%
Delta-T
°C
Wind Press
QNH
hPa
Press
MSL
hPa
Rain
since 9 am
mm
Dir
 
Spd
km/h
Gust
km/h
Spd
kts
Gust
kts
22/11:30pm 12.2 11.9 8.5 78 1.8 CALM 0 0 0 0 1028.1 1028.0 0.0
22/11:00pm 11.9 11.4 7.8 76 2.0 CALM 0 0 0 0 1028.4 1028.3 0.0
22/10:30pm 12.9 12.7 9.2 78 1.9 CALM 0 0 0 0 1028.4 1028.3 0.0
22/10:00pm 14.2 13.2 9.0 71 2.6 SE 4 6 2 3 1028.4 1028.3 0.0
22/09:30pm 15.0 14.8 9.1 68 3.0 CALM 0 2 0 1 1028.8 1028.7 0.0
22/09:00pm 15.9 14.9 8.9 63 3.6 S 4 6 2 3 1029.0 1028.9 0.0
22/08:30pm 17.3 16.5 9.7 61 4.0 SSE 4 7 2 4 1028.7 1028.6 0.0
22/08:00pm 17.3 16.1 9.7 61 4.0 SE 6 11 3 6 1028.2 1028.1 0.0
22/07:30pm 17.5 16.1 9.7 60 4.1 ESE 7 13 4 7 1027.8 1027.7 0.0
22/07:00pm 17.6 16.3 9.8 60 4.1 ESE 7 13 4 7 1027.8 1027.7 0.0
22/06:30pm 17.8 16.6 10.4 62 4.0 ESE 7 15 4 8 1027.6 1027.5 0.0
22/06:00pm 17.9 16.2 10.0 60 4.2 ESE 9 15 5 8 1027.3 1027.2 0.0
22/05:30pm 18.4 16.1 10.3 59 4.3 ESE 13 20 7 11 1026.9 1026.8 0.0
22/05:00pm 18.9 16.9 10.2 57 4.6 ESE 11 19 6 10 1026.8 1026.7 0.0
22/04:30pm 19.4 16.3 10.4 56 4.9 E 17 24 9 13 1026.4 1026.3 0.0
22/04:00pm 19.5 15.5 10.5 56 4.8 SE 22 32 12 17 1026.2 1026.1 0.0
22/03:30pm 20.4 17.4 10.8 54 5.2 ESE 17 28 9 15 1025.9 1025.8 0.0
22/03:00pm 20.7 18.3 11.3 55 5.2 ESE 15 24 8 13 1026.0 1025.9 0.0
22/02:30pm 20.9 17.6 11.5 55 5.2 E 20 32 11 17 1026.1 1026.0 0.0
22/02:00pm 20.6 17.5 11.5 56 5.0 ESE 19 32 10 17 1026.2 1026.1 0.0
22/01:30pm 19.7 17.2 12.2 62 4.2 ESE 17 28 9 15 1026.6 1026.5 0.0
22/01:00pm 18.4 16.4 12.6 69 3.2 SE 15 26 8 14 1027.1 1027.0 0.0
22/12:30pm 17.6 13.9 12.7 73 2.7 ESE 24 37 13 20 1027.4 1027.3 0.0
22/12:16pm 20.1 14.5 10.2 53 5.3 ESE 30 41 16 22 1027.4 1027.3 0.0
22/12:00pm 21.0 20.5 12.7 59 4.7 SE 7 19 4 10 1027.2 1027.1 0.0
22/11:30am 18.4 15.7 12.8 70 3.1 E 19 32 10 17 1028.1 1028.0 0.0
22/11:00am 21.2 19.3 10.4 50 5.9 E 11 17 6 9 1028.1 1028.0 0.0
22/10:30am 20.9 18.2 10.4 51 5.7 ESE 15 26 8 14 1028.1 1028.0 0.0
22/10:00am 20.0 15.8 9.6 51 5.5 ESE 22 30 12 16 1028.3 1028.2 0.0
22/09:30am 19.7 17.1 10.7 56 4.9 SSE 15 22 8 12 1028.4 1028.3 0.0
22/09:00am 18.9 16.8 11.2 61 4.2 SSE 13 19 7 10 1028.4 1028.3 0.0
22/08:30am 18.1 16.0 11.2 64 3.8 SSE 13 24 7 13 1028.3 1028.2 0.0
22/08:00am 18.3 15.8 11.1 63 3.9 SSE 15 24 8 13 1028.1 1028.0 0.0
22/07:30am 17.0 15.5 11.9 72 2.8 SSE 11 19 6 10 1027.9 1027.8 0.0
22/07:00am 15.4 14.5 12.5 83 1.6 S 9 15 5 8 1027.9 1027.8 0.0
22/06:30am 14.1 13.6 12.0 87 1.1 SSE 6 9 3 5 1027.7 1027.6 0.0
22/06:00am 12.5 12.5 9.7 83 1.4 CALM 0 0 0 0 1027.2 1027.1 0.0
22/05:30am 13.0 13.1 10.0 82 1.5 CALM 0 4 0 2 1026.8 1026.7 0.0
22/05:00am 13.2 13.4 10.4 83 1.4 CALM 0 0 0 0 1026.7 1026.6 0.0
22/04:30am 12.4 12.0 9.6 83 1.4 S 2 6 1 3 1026.1 1026.0 0.0
22/04:00am 12.8 12.4 9.8 82 1.5 SSE 2 4 1 2 1025.7 1025.6 0.0
22/03:30am 12.8 12.1 10.0 83 1.4 S 4 6 2 3 1025.9 1025.8 0.0
22/03:00am 13.3 12.7 10.3 82 1.5 S 4 9 2 5 1026.3 1026.2 0.0
22/02:30am 13.3 12.4 10.5 83 1.5 S 6 7 3 4 1026.4 1026.3 0.0
22/02:00am 12.7 12.0 10.1 84 1.3 SE 4 6 2 3 1026.9 1026.8 0.0
22/01:30am 12.8 12.1 10.0 83 1.4 SSW 4 6 2 3 1027.0 1026.9 0.0
22/01:00am 12.3 11.8 9.5 83 1.4 SSW 2 4 1 2 1027.1 1027.0 0.0
22/12:30am 12.7 12.7 9.9 83 1.4 CALM 0 0 0 0 1027.2 1027.1 0.0
22/12:00am 13.6 13.8 10.6 82 1.6 CALM 0 0 0 0 1027.4 1027.3 0.0
 
Date/Time
EST
Temp
°C
App
Temp
°C
Dew
Point
Rel
Hum
%
Delta-T
°C
Wind Press
QNH
hPa
Press
MSL
hPa
Rain
since 9 am
mm
Dir
 
Spd
km/h
Gust
km/h
Spd
kts
Gust
kts
21/11:30pm 13.6 12.9 10.0 79 1.9 S 4 6 2 3 1027.5 1027.4 0.0
21/11:00pm 14.5 14.6 10.1 75 2.3 CALM 0 4 0 2 1027.5 1027.4 0.0
21/10:30pm 15.3 15.5 10.5 73 2.5 CALM 0 4 0 2 1027.7 1027.6 0.0
21/10:00pm 15.9 15.4 10.7 71 2.7 SSW 4 7 2 4 1028.1 1028.0 0.0
21/09:30pm 16.5 15.5 10.4 67 3.2 S 6 9 3 5 1027.9 1027.8 0.0
21/09:00pm 16.9 15.3 10.3 65 3.5 SE 9 17 5 9 1027.8 1027.7 0.0
21/08:30pm 17.2 15.6 10.1 63 3.8 ESE 9 13 5 7 1027.7 1027.6 0.0
21/08:00pm 17.5 15.5 10.1 62 3.9 SE 11 19 6 10 1027.7 1027.6 0.0
21/07:30pm 17.5 16.3 10.4 63 3.8 ESE 7 13 4 7 1027.3 1027.2 0.0
21/07:00pm 17.6 16.1 10.5 63 3.8 ESE 9 13 5 7 1026.9 1026.8 0.0
21/06:30pm 18.1 17.2 10.7 62 4.0 E 6 13 3 7 1026.4 1026.3 0.0
21/06:00pm 18.1 16.6 10.5 61 4.1 E 9 13 5 7 1025.8 1025.7 0.0
21/05:30pm 18.4 16.6 9.5 56 4.7 ESE 9 15 5 8 1025.1 1025.0 0.0
21/05:00pm 19.3 15.6 9.5 53 5.2 ESE 19 28 10 15 1024.7 1024.6 0.0
21/04:30pm 20.1 16.5 9.7 51 5.6 E 19 28 10 15 1024.1 1024.0 0.0
21/04:00pm 20.1 16.8 9.7 51 5.5 E 17 32 9 17 1024.0 1023.9 0.0
21/03:30pm 20.5 17.2 9.4 49 5.9 E 17 30 9 16 1023.9 1023.8 0.0
21/03:00pm 21.1 17.8 9.4 47 6.2 E 17 24 9 13 1023.7 1023.6 0.0
21/02:30pm 21.4 16.8 8.3 43 6.9 ESE 22 35 12 19 1023.4 1023.3 0.0
21/02:00pm 21.9 19.8 8.1 41 7.2 ENE 9 20 5 11 1023.3 1023.2 0.0
21/01:30pm 22.0 20.2 7.8 40 7.4 E 7 13 4 7 1023.6 1023.5 0.0
21/01:00pm 21.7 20.0 8.2 42 7.1 E 7 17 4 9 1024.1 1024.0 0.0
21/12:30pm 21.6 19.2 7.1 39 7.5 ESE 9 19 5 10 1024.5 1024.4 0.0
21/12:00pm 21.5 19.4 8.1 42 7.0 ESE 9 15 5 8 1025.0 1024.9 0.0
21/11:30am 21.2 18.2 7.8 42 7.0 ESE 13 19 7 10 1025.3 1025.2 0.0
21/11:00am 21.7 19.1 7.9 41 7.2 S 11 20 6 11 1025.5 1025.4 0.0
21/10:30am 20.9 18.8 9.8 49 6.0 SW 11 20 6 11 1026.0 1025.9 0.0
21/10:00am 20.0 18.2 9.6 51 5.5 SW 9 19 5 10 1026.5 1026.4 0.0
21/09:30am 19.8 17.7 9.7 52 5.4 S 11 17 6 9 1026.6 1026.5 0.0
21/09:00am 19.0 16.4 9.5 54 5.0 SSW 13 22 7 12 1026.8 1026.7 0.0
21/08:30am 18.2 15.7 9.8 58 4.5 SSW 13 20 7 11 1026.8 1026.7 0.0
21/08:00am 17.2 15.1 9.9 62 3.8 S 11 19 6 10 1026.7 1026.6 0.0
21/07:30am 15.4 15.1 10.0 70 2.8 ESE 2 6 1 3 1026.6 1026.5 0.0
21/07:00am 12.4 12.2 9.2 81 1.6 CALM 0 2 0 1 1026.6 1026.5 0.0
21/06:30am 10.4 10.1 8.7 89 0.8 CALM 0 4 0 2 1026.3 1026.2 0.0
21/06:00am 8.9 8.3 7.4 90 0.7 CALM 0 2 0 1 1026.1 1026.0 0.0
21/05:30am 8.9 8.3 7.5 91 0.7 CALM 0 4 0 2 1025.7 1025.6 0.0
21/05:00am 8.0 7.2 6.3 89 0.8 CALM 0 0 0 0 1025.5 1025.4 0.0
21/04:30am 7.6 6.6 5.7 88 0.9 CALM 0 0 0 0 1025.1 1025.0 0.0
21/04:00am 8.1 7.2 6.2 88 0.9 CALM 0 0 0 0 1024.9 1024.8 0.0
21/03:30am 7.7 6.5 4.7 81 1.3 CALM 0 0 0 0 1024.7 1024.6 0.0
21/03:00am 10.3 9.5 8.1 86 1.1 ESE 2 4 1 2 1024.6 1024.5 0.0
21/02:30am 10.1 9.2 7.9 86 1.1 ESE 2 4 1 2 1024.9 1024.8 0.0
21/02:00am 10.7 10.3 8.1 84 1.3 CALM 0 0 0 0 1025.2 1025.1 0.0
21/01:30am 10.3 9.8 7.7 84 1.3 CALM 0 4 0 2 1025.2 1025.1 0.0
21/01:00am 10.2 8.9 7.6 84 1.2 SSE 4 6 2 3 1025.3 1025.2 0.0
21/12:30am 11.2 10.8 8.4 83 1.4 CALM 0 0 0 0 1025.4 1025.3 0.0
21/12:00am 10.5 9.9 7.2 80 1.6 CALM 0 0 0 0 1025.4 1025.3 0.0
 
Date/Time
EST
Temp
°C
App
Temp
°C
Dew
Point
Rel
Hum
%
Delta-T
°C
Wind Press
QNH
hPa
Press
MSL
hPa
Rain
since 9 am
mm
Dir
 
Spd
km/h
Gust
km/h
Spd
kts
Gust
kts
20/11:30pm 11.1 10.6 7.8 80 1.6 CALM 0 0 0 0 1025.2 1025.1 0.0
20/11:00pm 11.4 10.0 7.1 75 2.0 S 4 6 2 3 1024.8 1024.7 0.0
20/10:30pm 13.0 11.6 8.7 75 2.2 SSE 6 9 3 5 1024.8 1024.7 0.0
20/10:00pm 12.8 11.1 8.5 75 2.1 S 7 9 4 5 1025.1 1025.0 0.0
20/09:30pm 14.0 13.2 8.2 68 2.9 SE 2 4 1 2 1025.2 1025.1 0.0
20/09:00pm 14.6 13.9 8.5 67 3.1 S 2 4 1 2 1025.0 1024.9 0.0
20/08:30pm 15.7 15.0 8.7 63 3.6 SW 2 6 1 3 1024.6 1024.5 0.0
20/08:00pm 17.3 15.9 9.0 58 4.3 SE 6 11 3 6 1024.1 1024.0 0.0
20/07:30pm 16.9 16.0 9.1 60 4.0 ESE 4 6 2 3 1023.6 1023.5 0.0
20/07:00pm 17.1 15.9 9.5 61 4.0 E 6 9 3 5 1023.2 1023.1 0.0
20/06:30pm 16.9 14.0 9.6 62 3.8 E 15 24 8 13 1022.2 1022.1 0.0
20/06:00pm 17.4 14.7 8.8 57 4.4 E 13 26 7 14 1021.6 1021.5 0.0
20/05:30pm 18.7 15.9 8.7 52 5.2 E 13 24 7 13 1021.1 1021.0 0.0
20/05:00pm 19.4 15.8 8.4 49 5.7 E 17 28 9 15 1020.3 1020.2 0.0
20/04:30pm 20.1 16.2 8.8 48 5.9 E 19 32 10 17 1019.6 1019.5 0.0
20/04:00pm 20.9 17.2 9.5 48 6.1 E 19 32 10 17 1019.1 1019.0 0.0
20/03:30pm 21.3 17.0 9.5 47 6.3 E 22 37 12 20 1018.8 1018.7 0.0
20/03:00pm 21.3 19.0 10.5 50 5.9 E 13 24 7 13 1018.5 1018.4 0.0
20/02:30pm 21.5 18.7 10.0 48 6.2 ENE 15 24 8 13 1018.4 1018.3 0.0
20/02:00pm 21.5 19.3 10.9 51 5.8 ENE 13 20 7 11 1018.5 1018.4 0.0
20/01:30pm 21.9 19.2 10.4 48 6.3 E 15 26 8 14 1018.7 1018.6 0.0
20/01:00pm 21.9 19.9 10.1 47 6.4 E 11 20 6 11 1018.9 1018.8 0.0
20/12:30pm 23.3 21.9 9.7 42 7.4 SSE 7 13 4 7 1019.3 1019.2 0.0
20/12:00pm 24.2 23.3 9.4 39 8.0 ENE 4 9 2 5 1019.8 1019.7 0.0
20/11:30am 22.0 20.7 9.9 46 6.6 E 7 15 4 8 1020.4 1020.3 0.0
20/11:00am 22.2 21.0 10.4 47 6.4 E 7 11 4 6 1020.9 1020.8 0.0
20/10:30am 20.7 19.8 11.3 55 5.2 SW 7 13 4 7 1021.3 1021.2 0.0

Other Formats:

Comma delimited format used in spreadsheet applications
http://www.bom.gov.au/fwo/IDQ60801/IDQ60801.95575.axf

JavaScript Object Notation format (JSON) in row-major order
http://www.bom.gov.au/fwo/IDQ60801/IDQ60801.95575.json